createdAt,value
2023-02-27T00:00:28.791Z,94.98
2023-02-27T00:03:16.545Z,94.90
2023-02-27T00:05:44.549Z,94.93
2023-02-27T00:08:12.397Z,95.24
2023-02-27T00:10:40.392Z,94.60
2023-02-27T00:13:08.209Z,94.21
2023-02-27T00:15:38.199Z,94.44
2023-02-27T00:18:06.319Z,93.94
2023-02-27T00:20:37.834Z,94.24
2023-02-27T00:23:05.897Z,94.34
2023-02-27T00:25:34.863Z,94.36
2023-02-27T00:28:03.035Z,94.45
2023-02-27T00:30:30.812Z,94.90
2023-02-27T00:32:58.895Z,94.72
2023-02-27T00:35:26.674Z,94.70
2023-02-27T00:37:54.789Z,94.94
2023-02-27T00:40:25.237Z,94.88
2023-02-27T00:42:53.123Z,94.48
2023-02-27T00:45:20.944Z,95.15
2023-02-27T00:47:48.970Z,94.77
2023-02-27T00:50:16.942Z,95.08
2023-02-27T00:52:44.743Z,95.13
2023-02-27T00:55:12.879Z,95.36
2023-02-27T00:57:41.048Z,96.17
2023-02-27T01:00:09.502Z,96.08
2023-02-27T01:02:37.353Z,95.90
2023-02-27T01:05:05.577Z,95.80
2023-02-27T01:07:33.388Z,95.54
2023-02-27T01:10:02.033Z,95.61
2023-02-27T01:12:30.113Z,95.84
2023-02-27T01:14:57.981Z,95.69
2023-02-27T01:17:25.779Z,96.69
2023-02-27T01:19:53.641Z,96.04
2023-02-27T01:22:21.446Z,95.87
2023-02-27T01:24:49.169Z,95.92
2023-02-27T01:27:17.110Z,95.81
2023-02-27T01:29:44.955Z,95.32
2023-02-27T01:32:12.759Z,95.73
2023-02-27T01:34:40.539Z,95.96
2023-02-27T01:37:08.481Z,95.54
2023-02-27T01:39:36.626Z,95.40
2023-02-27T01:42:17.219Z,95.36
2023-02-27T01:45:01.058Z,95.55
2023-02-27T01:47:32.525Z,95.63
2023-02-27T01:50:00.330Z,95.16
2023-02-27T01:52:29.263Z,95.17
2023-02-27T01:54:57.325Z,95.15
2023-02-27T01:57:26.656Z,95.04
2023-02-27T01:59:54.507Z,94.86
2023-02-27T02:02:24.689Z,94.88
2023-02-27T02:04:54.152Z,94.94
2023-02-27T02:07:22.432Z,94.65
2023-02-27T02:09:51.643Z,94.72
2023-02-27T02:12:21.280Z,94.86
2023-02-27T02:14:49.097Z,94.78
2023-02-27T02:17:16.888Z,94.84
2023-02-27T02:19:47.642Z,94.97
2023-02-27T02:22:15.361Z,95.02
2023-02-27T02:24:59.139Z,94.72
2023-02-27T02:27:33.982Z,94.79
2023-02-27T02:30:04.847Z,95.01
2023-02-27T02:32:48.617Z,94.99
2023-02-27T02:35:16.377Z,95.03
2023-02-27T02:38:00.113Z,94.90
2023-02-27T02:40:33.442Z,94.95
2023-02-27T02:43:17.155Z,95.39
2023-02-27T02:45:45.078Z,95.28
2023-02-27T02:48:22.312Z,94.94
2023-02-27T02:51:01.724Z,95.10
2023-02-27T02:53:36.628Z,95.00
2023-02-27T02:56:22.489Z,94.85
2023-02-27T02:59:13.267Z,94.91
2023-02-27T03:01:43.805Z,95.05
2023-02-27T03:04:19.680Z,94.94
2023-02-27T03:06:55.835Z,95.16
2023-02-27T03:09:27.111Z,95.00
2023-02-27T03:11:56.783Z,94.93
2023-02-27T03:14:31.315Z,95.06
2023-02-27T03:17:03.694Z,95.28
2023-02-27T03:19:36.752Z,95.54
2023-02-27T03:22:10.342Z,95.11
2023-02-27T03:24:54.301Z,94.97
2023-02-27T03:27:23.117Z,95.05
2023-02-27T03:29:54.135Z,94.83
2023-02-27T03:32:31.035Z,95.20
2023-02-27T03:34:59.004Z,95.34
2023-02-27T03:37:35.368Z,95.44
2023-02-27T03:40:06.448Z,95.72
2023-02-27T03:42:38.882Z,95.93
2023-02-27T03:45:35.452Z,95.77
2023-02-27T03:48:04.004Z,96.08
2023-02-27T03:50:32.047Z,95.97
2023-02-27T03:53:01.776Z,96.00
2023-02-27T03:55:36.218Z,95.99
2023-02-27T03:58:04.893Z,95.94
2023-02-27T04:00:33.160Z,95.95
2023-02-27T04:03:01.545Z,96.10
2023-02-27T04:05:30.386Z,95.91
2023-02-27T04:08:06.108Z,95.83
2023-02-27T04:10:33.980Z,95.74
2023-02-27T04:13:16.687Z,95.74
2023-02-27T04:16:01.673Z,95.79
2023-02-27T04:18:29.597Z,96.01
2023-02-27T04:21:00.863Z,95.89
2023-02-27T04:23:28.639Z,95.75
2023-02-27T04:26:13.286Z,95.77
2023-02-27T04:28:46.284Z,95.75
2023-02-27T04:31:14.145Z,95.71
2023-02-27T04:33:49.043Z,95.76
2023-02-27T04:36:22.122Z,95.77
2023-02-27T04:39:05.927Z,95.82
2023-02-27T04:41:38.693Z,95.69
2023-02-27T04:44:08.324Z,95.68
2023-02-27T04:46:38.119Z,95.40
2023-02-27T04:49:13.144Z,95.41
2023-02-27T04:51:48.178Z,95.50
2023-02-27T04:54:17.886Z,95.48
2023-02-27T04:56:48.132Z,95.58
2023-02-27T04:59:21.947Z,95.56
2023-02-27T05:01:52.923Z,95.60
2023-02-27T05:04:22.949Z,95.56
2023-02-27T05:06:51.822Z,95.52
2023-02-27T05:09:22.627Z,95.55
2023-02-27T05:11:56.742Z,95.54
2023-02-27T05:14:24.434Z,95.48
2023-02-27T05:16:56.368Z,95.37
2023-02-27T05:19:24.256Z,95.37
2023-02-27T05:21:52.502Z,95.51
2023-02-27T05:24:43.245Z,95.57
2023-02-27T05:27:20.295Z,95.52
2023-02-27T05:29:52.418Z,95.63
2023-02-27T05:32:36.057Z,95.59
2023-02-27T05:35:12.720Z,95.79
2023-02-27T05:37:46.211Z,95.65
2023-02-27T05:40:15.898Z,95.67
2023-02-27T05:42:47.360Z,95.66
2023-02-27T05:45:18.929Z,95.62
2023-02-27T05:47:49.917Z,95.63
2023-02-27T05:50:21.483Z,95.64
2023-02-27T05:52:51.385Z,95.53
2023-02-27T05:55:24.154Z,95.49
2023-02-27T05:57:57.893Z,95.63
2023-02-27T06:00:31.924Z,95.58
2023-02-27T06:02:59.776Z,95.70
2023-02-27T06:05:28.210Z,95.60
2023-02-27T06:07:56.023Z,95.35
2023-02-27T06:10:23.823Z,95.39
2023-02-27T06:12:51.574Z,95.40
2023-02-27T06:15:19.652Z,95.32
2023-02-27T06:17:47.577Z,95.52
2023-02-27T06:20:15.432Z,95.62
2023-02-27T06:22:43.538Z,95.68
2023-02-27T06:25:11.550Z,95.54
2023-02-27T06:27:39.346Z,95.53
2023-02-27T06:30:07.497Z,95.26
2023-02-27T06:32:35.449Z,95.31
2023-02-27T06:35:03.335Z,95.22
2023-02-27T06:37:31.189Z,95.27
2023-02-27T06:39:58.944Z,95.28
2023-02-27T06:42:26.684Z,95.34
2023-02-27T06:44:54.833Z,95.43
2023-02-27T06:47:22.639Z,95.32
2023-02-27T06:49:50.529Z,95.03
2023-02-27T06:52:18.390Z,94.92
2023-02-27T06:54:51.736Z,94.75
2023-02-27T06:57:20.144Z,94.89
2023-02-27T06:59:49.891Z,94.94
2023-02-27T07:02:19.056Z,95.01
2023-02-27T07:04:47.101Z,94.81
2023-02-27T07:07:35.316Z,94.74
2023-02-27T07:10:02.759Z,94.95
2023-02-27T07:12:30.491Z,94.95
2023-02-27T07:14:58.903Z,94.89
2023-02-27T07:17:45.895Z,94.73
2023-02-27T07:20:14.042Z,94.67
2023-02-27T07:22:41.968Z,94.78
2023-02-27T07:25:09.909Z,94.56
2023-02-27T07:27:38.424Z,94.49
2023-02-27T07:30:06.493Z,94.74
2023-02-27T07:32:34.538Z,94.83
2023-02-27T07:35:03.911Z,94.73
2023-02-27T07:37:31.700Z,94.56
2023-02-27T07:39:59.460Z,94.52
2023-02-27T07:42:27.213Z,94.71
2023-02-27T07:44:55.523Z,94.71
2023-02-27T07:47:23.317Z,95.00
2023-02-27T07:49:51.061Z,95.05
2023-02-27T07:52:18.832Z,94.88
2023-02-27T07:54:46.567Z,94.39
2023-02-27T07:57:14.731Z,94.32
2023-02-27T07:59:42.502Z,94.24
2023-02-27T08:02:12.056Z,94.32
2023-02-27T08:04:39.927Z,94.03
2023-02-27T08:07:08.150Z,93.96
2023-02-27T08:09:36.417Z,93.84
2023-02-27T08:12:04.594Z,93.59
2023-02-27T08:14:32.557Z,93.66
2023-02-27T08:17:00.535Z,93.47
2023-02-27T08:19:28.316Z,92.64
2023-02-27T08:21:56.075Z,92.86
2023-02-27T08:24:23.999Z,91.97
2023-02-27T08:26:53.336Z,91.39
2023-02-27T08:29:21.100Z,91.52
2023-02-27T08:31:49.039Z,91.59
2023-02-27T08:34:16.868Z,92.00
2023-02-27T08:36:44.745Z,92.00
2023-02-27T08:39:12.715Z,92.01
2023-02-27T08:41:40.688Z,91.83
2023-02-27T08:44:08.307Z,90.02
2023-02-27T08:46:36.088Z,90.06
2023-02-27T08:49:04.143Z,90.47
2023-02-27T08:51:32.043Z,90.03
2023-02-27T08:54:00.877Z,89.71
2023-02-27T08:56:29.289Z,89.97
2023-02-27T08:58:57.382Z,90.08
2023-02-27T09:01:28.806Z,89.63
2023-02-27T09:03:56.792Z,88.90
2023-02-27T09:06:26.522Z,88.34
2023-02-27T09:08:54.356Z,88.37
2023-02-27T09:11:22.127Z,88.73
2023-02-27T09:13:51.371Z,87.46
2023-02-27T09:16:20.001Z,87.07
2023-02-27T09:18:48.637Z,87.10
2023-02-27T09:21:17.087Z,87.60
2023-02-27T09:23:44.886Z,87.91
2023-02-27T09:26:12.648Z,86.76
2023-02-27T09:28:40.420Z,86.54
2023-02-27T09:31:09.157Z,87.12
2023-02-27T09:33:38.156Z,87.38
2023-02-27T09:36:06.409Z,86.54
2023-02-27T09:38:35.067Z,86.82
2023-02-27T09:41:04.071Z,85.88
2023-02-27T09:43:34.789Z,87.12
2023-02-27T09:46:03.100Z,86.47
2023-02-27T09:48:34.987Z,85.45
2023-02-27T09:51:03.259Z,84.62
2023-02-27T09:53:38.994Z,85.03
2023-02-27T09:56:17.015Z,84.77
2023-02-27T09:59:11.495Z,84.47
2023-02-27T10:01:45.220Z,84.07
2023-02-27T10:04:20.520Z,84.55
2023-02-27T10:06:53.330Z,83.08
2023-02-27T10:09:37.012Z,84.22
2023-02-27T10:12:19.618Z,84.15
2023-02-27T10:15:04.097Z,83.18
2023-02-27T10:17:35.867Z,81.36
2023-02-27T10:20:09.559Z,81.34
2023-02-27T10:22:42.500Z,82.51
2023-02-27T10:25:30.377Z,83.11
2023-02-27T10:28:01.978Z,82.94
2023-02-27T10:30:34.342Z,83.09
2023-02-27T10:33:12.654Z,81.91
2023-02-27T10:35:43.691Z,82.56
2023-02-27T10:38:17.885Z,81.54
2023-02-27T10:40:46.656Z,79.95
2023-02-27T10:43:16.287Z,79.73
2023-02-27T10:45:44.060Z,79.25
2023-02-27T10:48:12.952Z,79.71
2023-02-27T10:50:45.815Z,79.57
2023-02-27T10:53:20.626Z,79.70
2023-02-27T10:55:57.603Z,80.75
2023-02-27T10:58:25.823Z,80.86
2023-02-27T11:00:56.010Z,79.82
2023-02-27T11:03:25.645Z,79.24
2023-02-27T11:05:58.326Z,79.63
2023-02-27T11:08:27.769Z,80.96
2023-02-27T11:10:55.730Z,81.76
2023-02-27T11:13:25.792Z,81.29
2023-02-27T11:16:11.947Z,81.49
2023-02-27T11:18:40.778Z,80.37
2023-02-27T11:21:11.334Z,78.48
2023-02-27T11:23:48.844Z,78.17
2023-02-27T11:26:21.064Z,78.60
2023-02-27T11:29:03.500Z,78.61
2023-02-27T11:31:32.628Z,78.67
2023-02-27T11:34:00.959Z,79.96
2023-02-27T11:36:43.606Z,79.07
2023-02-27T11:39:27.338Z,79.83
2023-02-27T11:41:56.748Z,78.80
2023-02-27T11:44:50.014Z,78.54
2023-02-27T11:47:16.936Z,78.76
2023-02-27T11:49:47.550Z,77.63
2023-02-27T11:52:19.904Z,78.57
2023-02-27T11:54:50.942Z,77.08
2023-02-27T11:57:28.853Z,76.74
2023-02-27T12:00:12.640Z,77.59
2023-02-27T12:02:47.874Z,78.31
2023-02-27T12:05:18.030Z,78.06
2023-02-27T12:07:54.168Z,77.89
2023-02-27T12:10:55.621Z,77.70
2023-02-27T12:14:02.512Z,77.39
2023-02-27T12:16:44.246Z,76.23
2023-02-27T12:19:27.891Z,77.34
2023-02-27T12:22:11.755Z,77.23
2023-02-27T12:24:44.093Z,77.41
2023-02-27T12:27:27.636Z,76.47
2023-02-27T12:30:11.177Z,77.49
2023-02-27T12:32:42.996Z,78.45
2023-02-27T12:35:16.486Z,77.87
2023-02-27T12:37:44.571Z,78.41
2023-02-27T12:40:19.509Z,77.89
2023-02-27T12:43:13.584Z,78.28
2023-02-27T12:45:57.386Z,78.27
2023-02-27T12:48:29.223Z,78.42
2023-02-27T12:51:13.309Z,77.85
2023-02-27T12:53:57.220Z,77.77
2023-02-27T12:56:28.102Z,76.86
2023-02-27T12:59:02.481Z,77.66
2023-02-27T13:01:46.409Z,77.71
2023-02-27T13:04:14.113Z,78.22
2023-02-27T13:07:02.361Z,77.64
2023-02-27T13:09:45.965Z,76.23
2023-02-27T13:12:29.677Z,76.02
2023-02-27T13:15:04.556Z,76.29
2023-02-27T13:17:39.514Z,74.65
2023-02-27T13:20:27.724Z,75.89
2023-02-27T13:22:58.368Z,76.47
2023-02-27T13:25:26.643Z,77.04
2023-02-27T13:27:58.358Z,74.44
2023-02-27T13:30:28.212Z,75.75
2023-02-27T13:33:12.697Z,72.25
2023-02-27T13:35:56.526Z,73.82
2023-02-27T13:38:30.031Z,75.28
2023-02-27T13:40:57.725Z,73.33
2023-02-27T13:43:28.316Z,74.46
2023-02-27T13:45:57.407Z,74.45
2023-02-27T13:48:41.127Z,74.28
2023-02-27T13:51:28.957Z,71.30
2023-02-27T13:54:11.714Z,68.31
2023-02-27T13:56:57.363Z,68.37
2023-02-27T13:59:33.762Z,69.04
2023-02-27T14:02:04.719Z,67.58
2023-02-27T14:04:34.490Z,68.43
2023-02-27T14:07:18.765Z,70.94
2023-02-27T14:09:47.286Z,71.30
2023-02-27T14:12:44.030Z,70.66
2023-02-27T14:15:28.845Z,72.32
2023-02-27T14:18:12.406Z,70.19
2023-02-27T14:20:41.826Z,72.45
2023-02-27T14:23:15.646Z,71.31
2023-02-27T14:25:59.474Z,68.88
2023-02-27T14:28:43.095Z,69.38
2023-02-27T14:31:24.193Z,66.91
2023-02-27T14:33:55.175Z,67.25
2023-02-27T14:36:22.782Z,66.99
2023-02-27T14:38:53.071Z,66.67
2023-02-27T14:41:20.651Z,68.44
2023-02-27T14:43:55.918Z,69.84
2023-02-27T14:46:29.316Z,68.52
2023-02-27T14:48:58.979Z,63.43
2023-02-27T14:51:28.033Z,63.62
2023-02-27T14:54:00.282Z,63.79
2023-02-27T14:56:28.525Z,61.89
2023-02-27T14:59:04.289Z,61.63
2023-02-27T15:01:36.372Z,61.19
2023-02-27T15:04:04.881Z,62.89
2023-02-27T15:06:37.350Z,63.97
2023-02-27T15:09:06.000Z,64.18
2023-02-27T15:11:33.958Z,64.39
2023-02-27T15:14:03.025Z,64.52
2023-02-27T15:16:31.746Z,65.23
2023-02-27T15:19:15.701Z,64.89
2023-02-27T15:21:46.400Z,64.43
2023-02-27T15:24:23.117Z,63.21
2023-02-27T15:26:52.217Z,64.29
2023-02-27T15:29:22.025Z,65.00
2023-02-27T15:31:50.239Z,64.94
2023-02-27T15:34:18.487Z,65.51
2023-02-27T15:36:48.393Z,66.19
2023-02-27T15:39:18.134Z,66.72
2023-02-27T15:41:51.493Z,66.85
2023-02-27T15:44:23.469Z,65.97
2023-02-27T15:46:51.810Z,65.98
2023-02-27T15:49:21.286Z,66.56
2023-02-27T15:51:54.737Z,66.35
2023-02-27T15:54:23.013Z,66.83
2023-02-27T15:56:51.488Z,66.90
2023-02-27T15:59:19.705Z,67.29
2023-02-27T16:01:48.115Z,67.31
2023-02-27T16:04:22.564Z,67.56
2023-02-27T16:06:53.915Z,67.76
2023-02-27T16:09:21.548Z,68.00
2023-02-27T16:11:49.571Z,68.08
2023-02-27T16:14:33.188Z,68.15
2023-02-27T16:17:01.168Z,68.44
2023-02-27T16:19:30.872Z,68.50
2023-02-27T16:22:07.026Z,68.47
2023-02-27T16:24:34.901Z,68.50
2023-02-27T16:27:02.976Z,68.81
2023-02-27T16:29:34.942Z,69.12
2023-02-27T16:32:03.673Z,69.41
2023-02-27T16:34:48.354Z,69.64
2023-02-27T16:37:21.183Z,70.02
2023-02-27T16:39:49.576Z,70.23
2023-02-27T16:42:17.662Z,70.38
2023-02-27T16:44:45.610Z,70.41
2023-02-27T16:47:13.473Z,70.44
2023-02-27T16:49:41.065Z,70.50
2023-02-27T16:52:10.952Z,70.54
2023-02-27T16:54:38.647Z,70.47
2023-02-27T16:57:06.357Z,70.41
2023-02-27T16:59:35.981Z,70.36
2023-02-27T17:02:05.755Z,70.40
2023-02-27T17:04:33.627Z,70.51
2023-02-27T17:07:06.337Z,70.55
2023-02-27T17:09:35.076Z,70.77
2023-02-27T17:12:02.741Z,70.93
2023-02-27T17:14:30.394Z,70.87
2023-02-27T17:17:00.190Z,71.07
2023-02-27T17:19:27.977Z,71.11
2023-02-27T17:21:55.724Z,71.06
2023-02-27T17:24:23.672Z,71.11
2023-02-27T17:26:52.517Z,71.31
2023-02-27T17:29:20.823Z,71.50
2023-02-27T17:31:48.675Z,71.66
2023-02-27T17:34:16.858Z,71.81
2023-02-27T17:36:44.550Z,71.75
2023-02-27T17:39:14.096Z,71.78
2023-02-27T17:41:42.743Z,71.93
2023-02-27T17:44:11.482Z,72.06
2023-02-27T17:46:39.665Z,72.13
2023-02-27T17:49:07.384Z,72.27
2023-02-27T17:51:35.283Z,72.28
2023-02-27T17:54:04.715Z,72.26
2023-02-27T17:56:33.375Z,72.16
2023-02-27T17:59:02.015Z,72.14
2023-02-27T18:01:29.908Z,72.48
2023-02-27T18:03:57.715Z,72.71
2023-02-27T18:06:25.633Z,73.00
2023-02-27T18:08:53.920Z,73.30
2023-02-27T18:11:22.249Z,73.32
2023-02-27T18:13:50.454Z,73.38
2023-02-27T18:16:18.832Z,73.38
2023-02-27T18:18:46.522Z,73.46
2023-02-27T18:21:15.626Z,73.74
2023-02-27T18:23:43.954Z,73.86
2023-02-27T18:26:28.459Z,73.93
2023-02-27T18:29:01.879Z,73.90
2023-02-27T18:31:32.441Z,73.86
2023-02-27T18:34:00.879Z,74.05
2023-02-27T18:36:29.631Z,74.16
2023-02-27T18:38:58.309Z,74.26
2023-02-27T18:41:26.098Z,74.27
2023-02-27T18:43:53.889Z,74.24
2023-02-27T18:46:22.414Z,74.32
2023-02-27T18:48:50.436Z,74.34
2023-02-27T18:51:18.380Z,74.39
2023-02-27T18:53:47.970Z,74.41
2023-02-27T18:56:17.350Z,74.49
2023-02-27T18:58:45.366Z,74.66
2023-02-27T19:01:29.010Z,74.68
2023-02-27T19:04:03.283Z,74.70
2023-02-27T19:06:32.572Z,74.72
2023-02-27T19:09:00.316Z,74.71
2023-02-27T19:11:32.923Z,74.72
2023-02-27T19:14:01.340Z,74.80
2023-02-27T19:16:29.814Z,74.86
2023-02-27T19:18:58.430Z,74.97
2023-02-27T19:21:26.791Z,74.78
2023-02-27T19:23:55.000Z,74.83
2023-02-27T19:26:24.174Z,74.77
2023-02-27T19:28:53.749Z,74.92
2023-02-27T19:31:23.320Z,75.05
2023-02-27T19:33:51.474Z,75.18
2023-02-27T19:36:20.763Z,75.01
2023-02-27T19:38:49.022Z,75.17
2023-02-27T19:41:17.244Z,75.22
2023-02-27T19:43:45.486Z,75.29
2023-02-27T19:46:14.830Z,75.24
2023-02-27T19:48:43.052Z,75.21
2023-02-27T19:51:12.187Z,75.18
2023-02-27T19:53:41.084Z,75.22
2023-02-27T19:56:11.032Z,75.32
2023-02-27T19:58:39.438Z,75.43
2023-02-27T20:01:09.707Z,75.41
2023-02-27T20:03:43.159Z,75.35
2023-02-27T20:06:18.861Z,75.42
2023-02-27T20:08:46.723Z,75.44
2023-02-27T20:11:17.317Z,75.71
2023-02-27T20:13:44.928Z,75.78
2023-02-27T20:16:14.526Z,75.89
2023-02-27T20:18:42.818Z,75.96
2023-02-27T20:21:14.594Z,76.14
2023-02-27T20:23:43.122Z,76.22
2023-02-27T20:26:26.914Z,76.22
2023-02-27T20:28:55.842Z,76.38
2023-02-27T20:31:25.492Z,76.45
2023-02-27T20:33:54.352Z,76.51
2023-02-27T20:36:22.041Z,76.52
2023-02-27T20:38:49.828Z,76.55
2023-02-27T20:41:19.381Z,76.61
2023-02-27T20:43:47.863Z,76.58
2023-02-27T20:46:17.808Z,76.65
2023-02-27T20:48:46.081Z,76.45
2023-02-27T20:51:15.368Z,76.59
2023-02-27T20:53:44.522Z,76.78
2023-02-27T20:56:12.646Z,76.97
2023-02-27T20:58:40.504Z,77.03
2023-02-27T21:01:09.037Z,76.99
2023-02-27T21:03:39.230Z,77.05
2023-02-27T21:06:08.187Z,77.17
2023-02-27T21:08:36.548Z,77.07
2023-02-27T21:11:12.252Z,77.09
2023-02-27T21:13:40.165Z,77.28
2023-02-27T21:16:09.425Z,77.15
2023-02-27T21:18:37.619Z,77.21
2023-02-27T21:21:06.776Z,77.20
2023-02-27T21:23:41.010Z,77.22
2023-02-27T21:26:24.750Z,77.30
2023-02-27T21:28:53.708Z,77.24
2023-02-27T21:31:22.613Z,77.26
2023-02-27T21:33:50.728Z,77.32
2023-02-27T21:36:23.725Z,77.27
2023-02-27T21:38:54.349Z,77.33
2023-02-27T21:41:22.090Z,77.42
2023-02-27T21:43:49.818Z,77.63
2023-02-27T21:46:17.584Z,77.67
2023-02-27T21:48:45.524Z,77.71
2023-02-27T21:51:13.246Z,77.74
2023-02-27T21:53:41.002Z,77.53
2023-02-27T21:56:10.817Z,77.63
2023-02-27T21:58:38.721Z,77.93
2023-02-27T22:01:16.635Z,77.87
2023-02-27T22:03:46.078Z,77.99
2023-02-27T22:06:15.066Z,77.91
2023-02-27T22:08:43.288Z,77.92
2023-02-27T22:11:11.564Z,78.07
2023-02-27T22:13:39.507Z,78.30
2023-02-27T22:16:08.602Z,78.36
2023-02-27T22:18:37.232Z,78.40
2023-02-27T22:21:13.042Z,78.42
2023-02-27T22:23:40.802Z,78.29
2023-02-27T22:26:10.540Z,78.36
2023-02-27T22:28:41.534Z,78.11
2023-02-27T22:31:19.911Z,78.14
2023-02-27T22:33:49.046Z,78.22
2023-02-27T22:36:18.488Z,78.23
2023-02-27T22:38:46.778Z,78.16
2023-02-27T22:41:15.677Z,78.27
2023-02-27T22:43:44.892Z,78.08
2023-02-27T22:46:14.333Z,78.10
2023-02-27T22:48:42.515Z,78.17
2023-02-27T22:51:12.574Z,78.27
2023-02-27T22:53:41.506Z,78.31
2023-02-27T22:56:10.485Z,78.38
2023-02-27T22:58:40.204Z,78.50
2023-02-27T23:01:16.130Z,78.52
2023-02-27T23:03:44.821Z,78.74
2023-02-27T23:06:13.808Z,78.75
2023-02-27T23:08:42.386Z,78.66
2023-02-27T23:11:10.883Z,78.48
2023-02-27T23:13:38.804Z,78.51
2023-02-27T23:16:11.538Z,78.44
2023-02-27T23:18:46.964Z,78.10
2023-02-27T23:21:16.371Z,78.46
2023-02-27T23:23:44.548Z,78.67
2023-02-27T23:26:12.570Z,78.93
2023-02-27T23:28:40.250Z,78.91
2023-02-27T23:31:08.792Z,79.17
2023-02-27T23:33:36.760Z,79.20
2023-02-27T23:36:04.838Z,79.15
2023-02-27T23:38:32.768Z,79.27
2023-02-27T23:41:07.796Z,79.31
2023-02-27T23:43:36.479Z,79.34
2023-02-27T23:46:11.655Z,79.29
2023-02-27T23:48:39.708Z,79.25
2023-02-27T23:51:08.488Z,79.07
2023-02-27T23:53:40.239Z,79.10
2023-02-27T23:56:15.542Z,79.09
2023-02-27T23:58:44.149Z,78.94
